createdAt,value
2022-08-07T00:01:44.326Z,17.85
2022-08-07T00:04:16.845Z,17.60
2022-08-07T00:06:52.959Z,17.53
2022-08-07T00:09:33.776Z,17.64
2022-08-07T00:12:04.570Z,17.51
2022-08-07T00:14:34.350Z,17.45
2022-08-07T00:17:06.616Z,17.42
2022-08-07T00:20:00.078Z,17.57
2022-08-07T00:22:35.534Z,17.44
2022-08-07T00:25:06.911Z,17.41
2022-08-07T00:27:52.307Z,17.47
2022-08-07T00:30:27.296Z,17.37
2022-08-07T00:32:58.543Z,17.44
2022-08-07T00:35:30.102Z,17.41
2022-08-07T00:37:59.156Z,17.47
2022-08-07T00:40:36.398Z,17.42
2022-08-07T00:43:59.782Z,17.35
2022-08-07T00:46:01.934Z,17.33
2022-08-07T00:48:32.396Z,17.38
2022-08-07T00:51:02.708Z,17.36
2022-08-07T00:53:38.517Z,17.40
2022-08-07T00:56:17.658Z,17.36
2022-08-07T00:58:49.823Z,17.39
2022-08-07T01:01:21.381Z,17.39
2022-08-07T01:03:56.283Z,17.36
2022-08-07T01:06:30.874Z,17.51
2022-08-07T01:09:01.625Z,17.33
2022-08-07T01:12:09.452Z,17.36
2022-08-07T01:14:28.517Z,17.44
2022-08-07T01:17:00.181Z,17.43
2022-08-07T01:19:38.550Z,17.27
2022-08-07T01:22:22.520Z,17.28
2022-08-07T01:24:52.060Z,17.24
2022-08-07T01:27:20.663Z,17.32
2022-08-07T01:29:50.633Z,17.27
2022-08-07T01:32:22.545Z,17.17
2022-08-07T01:34:53.620Z,17.21
2022-08-07T01:37:23.798Z,17.11
2022-08-07T01:39:59.112Z,17.05
2022-08-07T01:42:40.136Z,17.02
2022-08-07T01:45:37.218Z,16.86
2022-08-07T01:48:19.745Z,16.71
2022-08-07T01:51:24.520Z,16.73
2022-08-07T01:54:11.954Z,16.54
2022-08-07T01:56:50.702Z,16.57
2022-08-07T01:59:31.137Z,16.49
2022-08-07T02:02:06.220Z,16.51
2022-08-07T02:04:55.910Z,16.41
2022-08-07T02:07:44.709Z,16.40
2022-08-07T02:10:26.525Z,16.39
2022-08-07T02:13:00.234Z,16.33
2022-08-07T02:15:37.465Z,16.60
2022-08-07T02:18:07.088Z,16.61
2022-08-07T02:20:38.151Z,16.62
2022-08-07T02:23:11.704Z,16.70
2022-08-07T02:26:32.060Z,16.66
2022-08-07T02:28:34.561Z,16.68
2022-08-07T02:31:19.106Z,16.65
2022-08-07T02:34:04.212Z,16.59
2022-08-07T02:36:47.790Z,16.44
2022-08-07T02:39:43.031Z,16.39
2022-08-07T02:42:14.798Z,16.29
2022-08-07T02:44:51.932Z,16.22
2022-08-07T02:47:25.713Z,16.06
2022-08-07T02:50:03.235Z,16.13
2022-08-07T02:52:44.089Z,16.03
2022-08-07T02:55:27.674Z,16.05
2022-08-07T02:58:05.800Z,15.99
2022-08-07T03:00:36.339Z,16.14
2022-08-07T03:03:13.576Z,16.11
2022-08-07T03:05:47.080Z,15.89
2022-08-07T03:08:19.334Z,15.89
2022-08-07T03:10:57.938Z,15.86
2022-08-07T03:13:39.110Z,15.76
2022-08-07T03:16:27.737Z,15.79
2022-08-07T03:18:58.796Z,15.80
2022-08-07T03:21:29.049Z,15.79
2022-08-07T03:24:19.903Z,15.76
2022-08-07T03:26:58.155Z,15.77
2022-08-07T03:29:37.597Z,15.67
2022-08-07T03:32:13.008Z,15.55
2022-08-07T03:34:47.329Z,15.45
2022-08-07T03:37:37.357Z,15.41
2022-08-07T03:40:17.071Z,15.46
2022-08-07T03:42:46.636Z,15.53
2022-08-07T03:45:30.827Z,15.41
2022-08-07T03:48:10.123Z,15.46
2022-08-07T03:50:43.114Z,15.32
2022-08-07T03:54:00.691Z,15.34
2022-08-07T03:56:13.686Z,15.28
2022-08-07T03:59:08.385Z,15.36
2022-08-07T04:01:37.013Z,15.36
2022-08-07T04:04:06.033Z,15.39
2022-08-07T04:06:40.656Z,15.33
2022-08-07T04:09:16.776Z,15.36
2022-08-07T04:12:25.319Z,15.34
2022-08-07T04:14:46.124Z,15.23
2022-08-07T04:17:21.808Z,15.17
2022-08-07T04:19:54.472Z,15.19
2022-08-07T04:22:29.225Z,15.26
2022-08-07T04:25:02.315Z,15.33
2022-08-07T04:27:35.768Z,15.22
2022-08-07T04:30:35.601Z,15.32
2022-08-07T04:33:10.462Z,15.29
2022-08-07T04:35:50.512Z,15.27
2022-08-07T04:38:21.663Z,15.32
2022-08-07T04:40:52.985Z,15.29
2022-08-07T04:44:09.632Z,15.29
2022-08-07T04:47:04.652Z,15.19
2022-08-07T04:49:57.950Z,15.31
2022-08-07T04:52:46.768Z,15.33
2022-08-07T04:58:09.383Z,15.59
2022-08-07T04:58:49.577Z,16.17
2022-08-07T05:01:20.560Z,16.61
2022-08-07T05:04:06.422Z,17.05
2022-08-07T05:06:51.682Z,17.39
2022-08-07T05:09:46.205Z,17.65
2022-08-07T05:12:30.526Z,17.72
2022-08-07T05:15:23.485Z,18.00
2022-08-07T05:18:01.594Z,18.17
2022-08-07T05:20:43.243Z,18.11
2022-08-07T05:23:20.591Z,18.26
2022-08-07T05:26:13.890Z,18.29
2022-08-07T05:28:51.040Z,18.60
2022-08-07T05:31:34.964Z,18.75
2022-08-07T05:34:15.723Z,19.01
2022-08-07T05:36:52.670Z,19.15
2022-08-07T05:40:14.033Z,19.27
2022-08-07T05:42:34.194Z,18.87
2022-08-07T05:45:25.692Z,19.15
2022-08-07T05:48:01.570Z,19.26
2022-08-07T05:50:35.841Z,19.38
2022-08-07T05:54:12.475Z,19.62
2022-08-07T05:56:03.511Z,19.77
2022-08-07T05:58:39.184Z,19.92
2022-08-07T06:01:13.478Z,20.07
2022-08-07T06:03:57.211Z,19.99
2022-08-07T06:06:34.765Z,20.22
2022-08-07T06:09:06.431Z,20.56
2022-08-07T06:11:41.321Z,20.77
2022-08-07T06:14:21.265Z,20.87
2022-08-07T06:16:57.155Z,21.51
2022-08-07T06:19:52.192Z,21.26
2022-08-07T06:22:27.061Z,21.11
2022-08-07T06:25:19.927Z,21.30
2022-08-07T06:28:01.791Z,21.52
2022-08-07T06:30:37.504Z,21.63
2022-08-07T06:33:19.247Z,21.65
2022-08-07T06:36:12.917Z,22.22
2022-08-07T06:38:58.439Z,22.41
2022-08-07T06:42:02.123Z,22.20
2022-08-07T06:45:00.530Z,21.72
2022-08-07T06:47:38.877Z,21.78
2022-08-07T06:50:19.237Z,21.60
2022-08-07T06:52:55.877Z,21.86
2022-08-07T06:56:00.066Z,22.34
2022-08-07T06:58:24.528Z,22.83
2022-08-07T07:01:07.674Z,22.81
2022-08-07T07:03:50.255Z,22.96
2022-08-07T07:06:27.471Z,22.86
2022-08-07T07:08:56.939Z,22.79
2022-08-07T07:12:09.011Z,23.05
2022-08-07T07:14:18.832Z,23.34
2022-08-07T07:16:54.652Z,23.26
2022-08-07T07:19:56.340Z,23.38
2022-08-07T07:22:36.724Z,23.49
2022-08-07T07:26:32.211Z,22.95
2022-08-07T07:28:07.506Z,23.63
2022-08-07T07:30:57.263Z,23.92
2022-08-07T07:33:29.938Z,23.79
2022-08-07T07:36:05.575Z,24.08
2022-08-07T07:38:45.899Z,24.08
2022-08-07T07:41:18.115Z,24.51
2022-08-07T07:44:17.435Z,25.00
2022-08-07T07:46:54.204Z,25.30
2022-08-07T07:50:35.903Z,25.53
2022-08-07T07:52:19.997Z,25.10
2022-08-07T07:54:50.732Z,24.91
2022-08-07T07:57:50.231Z,25.12
2022-08-07T08:00:21.113Z,25.05
2022-08-07T08:03:06.157Z,24.46
2022-08-07T08:05:42.972Z,25.71
2022-08-07T08:08:35.212Z,25.98
2022-08-07T08:11:09.227Z,25.33
2022-08-07T08:13:53.989Z,26.16
2022-08-07T08:16:31.224Z,26.64
2022-08-07T08:19:18.151Z,27.13
2022-08-07T08:22:10.856Z,26.12
2022-08-07T08:25:09.338Z,26.77
2022-08-07T08:27:56.361Z,27.68
2022-08-07T08:30:34.424Z,27.21
2022-08-07T08:33:10.568Z,28.65
2022-08-07T08:35:50.091Z,28.83
2022-08-07T08:38:25.864Z,27.79
2022-08-07T08:41:07.817Z,27.49
2022-08-07T08:43:59.021Z,27.75
2022-08-07T08:46:40.562Z,27.85
2022-08-07T08:49:32.671Z,27.91
2022-08-07T08:52:14.190Z,27.87
2022-08-07T08:54:54.433Z,28.60
2022-08-07T08:57:34.058Z,27.52
2022-08-07T09:00:07.525Z,27.16
2022-08-07T09:02:49.606Z,27.73
2022-08-07T09:05:37.697Z,27.62
2022-08-07T09:08:29.054Z,28.12
2022-08-07T09:11:14.087Z,27.63
2022-08-07T09:14:13.830Z,27.22
2022-08-07T09:17:04.121Z,27.88
2022-08-07T09:19:56.614Z,28.31
2022-08-07T09:24:33.193Z,28.81
2022-08-07T09:25:54.408Z,28.09
2022-08-07T09:30:00.909Z,27.42
2022-08-07T09:31:38.460Z,28.27
2022-08-07T09:34:18.065Z,27.87
2022-08-07T09:37:00.527Z,28.21
2022-08-07T09:39:54.420Z,27.61
2022-08-07T09:42:50.423Z,28.15
2022-08-07T09:47:24.546Z,27.91
2022-08-07T09:48:56.046Z,28.41
2022-08-07T09:52:16.043Z,28.80
2022-08-07T09:54:45.594Z,28.24
2022-08-07T09:57:46.637Z,28.44
2022-08-07T10:00:24.275Z,27.82
2022-08-07T10:04:03.758Z,28.22
2022-08-07T10:07:25.883Z,28.94
2022-08-07T10:10:21.256Z,28.60
2022-08-07T10:13:58.350Z,29.03
2022-08-07T10:17:14.122Z,28.26
2022-08-07T10:20:05.148Z,28.61
2022-08-07T10:22:58.833Z,28.94
2022-08-07T10:25:43.170Z,27.97
2022-08-07T10:28:43.444Z,27.80
2022-08-07T10:31:42.103Z,27.97
2022-08-07T10:34:37.359Z,27.69
2022-08-07T10:37:59.944Z,27.50
2022-08-07T10:40:30.363Z,28.30
2022-08-07T10:43:07.390Z,28.34
2022-08-07T10:45:45.366Z,27.84
2022-08-07T10:48:48.583Z,27.98
2022-08-07T10:51:39.643Z,27.67
2022-08-07T10:54:19.905Z,27.83
2022-08-07T10:57:04.745Z,28.07
2022-08-07T10:59:54.675Z,27.80
2022-08-07T11:02:33.611Z,27.71
2022-08-07T11:05:35.691Z,28.30
2022-08-07T11:08:30.483Z,28.01
2022-08-07T11:11:05.194Z,28.04
2022-08-07T11:14:45.967Z,28.25
2022-08-07T11:16:38.679Z,27.80
2022-08-07T11:19:12.742Z,27.37
2022-08-07T11:21:53.756Z,27.47
2022-08-07T11:24:29.974Z,27.22
2022-08-07T11:27:06.129Z,27.12
2022-08-07T11:29:47.289Z,27.02
2022-08-07T11:32:26.237Z,27.69
2022-08-07T11:34:59.818Z,27.20
2022-08-07T11:37:57.880Z,26.98
2022-08-07T11:40:50.082Z,27.24
2022-08-07T11:43:41.363Z,27.46
2022-08-07T11:46:31.444Z,27.59
2022-08-07T11:49:50.243Z,27.51
2022-08-07T11:52:29.246Z,27.43
2022-08-07T11:55:18.912Z,27.41
2022-08-07T11:58:16.651Z,27.36
2022-08-07T12:01:02.648Z,27.23
2022-08-07T12:03:58.554Z,27.35
2022-08-07T12:06:50.838Z,27.04
2022-08-07T12:09:35.833Z,27.04
2022-08-07T12:12:12.258Z,27.08
2022-08-07T12:14:55.342Z,26.87
2022-08-07T12:17:33.700Z,26.90
2022-08-07T12:20:30.193Z,27.02
2022-08-07T12:24:05.687Z,27.21
2022-08-07T12:26:35.437Z,27.20
2022-08-07T12:29:20.358Z,26.99
2022-08-07T12:32:16.046Z,27.23
2022-08-07T12:34:49.652Z,26.81
2022-08-07T12:37:28.535Z,27.11
2022-08-07T12:40:44.147Z,26.70
2022-08-07T12:43:09.878Z,26.90
2022-08-07T12:45:55.619Z,26.86
2022-08-07T12:48:51.775Z,26.91
2022-08-07T12:51:33.152Z,27.02
2022-08-07T12:54:38.089Z,26.72
2022-08-07T12:57:09.734Z,26.64
2022-08-07T12:59:54.516Z,26.36
2022-08-07T13:02:49.597Z,26.48
2022-08-07T13:06:04.665Z,26.30
2022-08-07T13:08:48.992Z,26.64
2022-08-07T13:12:01.885Z,26.77
2022-08-07T13:14:50.933Z,26.71
2022-08-07T13:17:40.679Z,26.33
2022-08-07T13:20:21.781Z,26.29
2022-08-07T13:23:59.926Z,26.52
2022-08-07T13:26:00.777Z,26.49
2022-08-07T13:28:39.386Z,26.45
2022-08-07T13:31:24.078Z,26.75
2022-08-07T13:34:34.089Z,26.46
2022-08-07T13:37:10.983Z,26.56
2022-08-07T13:40:35.322Z,26.49
2022-08-07T13:42:54.512Z,26.53
2022-08-07T13:46:10.408Z,26.61
2022-08-07T13:48:27.594Z,26.77
2022-08-07T13:51:26.880Z,26.48
2022-08-07T13:54:01.784Z,26.47
2022-08-07T13:56:36.256Z,26.46
2022-08-07T13:59:15.707Z,26.46
2022-08-07T14:02:03.918Z,26.33
2022-08-07T14:04:48.992Z,26.60
2022-08-07T14:07:23.825Z,26.43
2022-08-07T14:10:02.722Z,26.46
2022-08-07T14:12:53.976Z,26.62
2022-08-07T14:15:35.179Z,26.50
2022-08-07T14:18:27.651Z,26.47
2022-08-07T14:21:07.939Z,26.43
2022-08-07T14:24:00.539Z,26.46
2022-08-07T14:26:37.690Z,26.52
2022-08-07T14:30:06.276Z,26.55
2022-08-07T14:32:07.887Z,26.57
2022-08-07T14:34:46.003Z,26.75
2022-08-07T14:37:18.748Z,26.58
2022-08-07T14:40:17.553Z,26.45
2022-08-07T14:45:46.617Z,26.37
2022-08-07T14:48:21.598Z,26.54
2022-08-07T14:50:58.404Z,26.63
2022-08-07T14:54:08.616Z,26.76
2022-08-07T14:56:29.980Z,26.78
2022-08-07T14:59:13.925Z,26.76
2022-08-07T15:01:58.294Z,26.74
2022-08-07T15:04:28.790Z,26.72
2022-08-07T15:07:00.875Z,26.67
2022-08-07T15:09:59.648Z,26.70
2022-08-07T15:12:30.328Z,26.69
2022-08-07T15:15:25.153Z,26.72
2022-08-07T15:18:02.561Z,26.64
2022-08-07T15:25:02.827Z,26.63
2022-08-07T15:26:28.647Z,26.74
2022-08-07T15:30:06.934Z,26.59
2022-08-07T15:32:02.104Z,26.77
2022-08-07T15:34:37.003Z,26.87
2022-08-07T15:37:07.115Z,26.90
2022-08-07T15:39:57.312Z,26.79
2022-08-07T15:42:52.420Z,26.89
2022-08-07T15:48:34.686Z,26.88
2022-08-07T15:51:11.895Z,27.07
2022-08-07T15:53:52.831Z,27.12
2022-08-07T15:56:33.319Z,27.04
2022-08-07T15:59:05.839Z,26.94
2022-08-07T16:01:40.908Z,26.98
2022-08-07T16:04:15.600Z,26.84
2022-08-07T16:06:54.233Z,26.82
2022-08-07T16:09:41.932Z,26.76
2022-08-07T16:12:30.402Z,26.80
2022-08-07T16:15:55.293Z,26.79
2022-08-07T16:18:43.462Z,26.73
2022-08-07T16:22:02.692Z,26.72
2022-08-07T16:24:34.938Z,26.73
2022-08-07T16:27:18.890Z,26.81
2022-08-07T16:30:30.277Z,26.58
2022-08-07T16:34:01.373Z,26.73
2022-08-07T16:36:31.478Z,26.62
2022-08-07T16:39:40.521Z,26.63
2022-08-07T16:42:49.810Z,26.53
2022-08-07T16:46:34.637Z,26.51
2022-08-07T16:50:20.672Z,26.51
2022-08-07T16:52:52.015Z,26.30
2022-08-07T16:55:15.024Z,26.26
2022-08-07T16:58:02.126Z,26.16
2022-08-07T17:00:43.051Z,26.23
2022-08-07T17:03:57.777Z,26.28
2022-08-07T17:06:37.707Z,26.18
2022-08-07T17:10:05.472Z,26.20
2022-08-07T17:12:36.790Z,26.19
2022-08-07T17:15:18.266Z,26.19
2022-08-07T17:17:58.794Z,26.25
2022-08-07T17:20:33.438Z,26.19
2022-08-07T17:23:16.677Z,26.04
2022-08-07T17:26:01.736Z,26.05
2022-08-07T17:28:38.473Z,26.07
2022-08-07T17:31:24.172Z,26.12
2022-08-07T17:34:17.914Z,26.17
2022-08-07T17:37:09.099Z,26.08
2022-08-07T17:39:58.471Z,25.91
2022-08-07T17:42:59.123Z,25.88
2022-08-07T17:45:35.765Z,25.82
2022-08-07T17:48:12.972Z,25.83
2022-08-07T17:50:54.442Z,25.81
2022-08-07T17:54:00.448Z,25.74
2022-08-07T17:56:29.470Z,25.64
2022-08-07T17:59:11.240Z,25.68
2022-08-07T18:01:57.434Z,25.68
2022-08-07T18:04:34.728Z,25.65
2022-08-07T18:07:24.055Z,25.62
2022-08-07T18:10:06.762Z,25.56
2022-08-07T18:12:54.909Z,25.50
2022-08-07T18:15:33.149Z,25.42
2022-08-07T18:21:01.279Z,25.39
2022-08-07T18:21:41.443Z,25.34
2022-08-07T18:24:07.047Z,25.30
2022-08-07T18:26:58.109Z,25.17
2022-08-07T18:30:07.772Z,25.13
2022-08-07T18:33:10.876Z,25.04
2022-08-07T18:35:55.582Z,25.00
2022-08-07T18:38:56.298Z,24.96
2022-08-07T18:41:46.430Z,24.90
2022-08-07T18:44:56.001Z,24.84
2022-08-07T18:47:45.176Z,24.76
2022-08-07T18:50:46.382Z,24.68
2022-08-07T18:53:36.884Z,24.60
2022-08-07T18:56:20.987Z,24.56
2022-08-07T18:59:47.041Z,24.45
2022-08-07T19:02:34.237Z,24.35
2022-08-07T19:05:17.628Z,24.29
2022-08-07T19:07:59.121Z,24.24
2022-08-07T19:10:41.166Z,24.16
2022-08-07T19:13:27.525Z,24.08
2022-08-07T19:17:00.328Z,24.05
2022-08-07T19:19:03.925Z,23.97
2022-08-07T19:21:53.607Z,23.93
2022-08-07T19:24:35.347Z,23.91
2022-08-07T19:28:29.246Z,23.80
2022-08-07T19:31:03.179Z,23.73
2022-08-07T19:32:53.616Z,23.61
2022-08-07T19:35:33.327Z,23.53
2022-08-07T19:38:15.139Z,23.42
2022-08-07T19:40:50.199Z,23.44
2022-08-07T19:43:43.366Z,23.37
2022-08-07T19:46:13.327Z,23.36
2022-08-07T19:48:53.955Z,23.32
2022-08-07T19:51:52.540Z,23.23
2022-08-07T19:54:32.982Z,23.19
2022-08-07T19:58:03.483Z,23.12
2022-08-07T20:00:02.019Z,23.15
2022-08-07T20:02:39.412Z,23.05
2022-08-07T20:05:11.080Z,22.99
2022-08-07T20:07:47.637Z,22.96
2022-08-07T20:10:36.826Z,22.94
2022-08-07T20:13:23.670Z,22.87
2022-08-07T20:15:57.866Z,22.81
2022-08-07T20:18:33.421Z,22.86
2022-08-07T20:21:14.547Z,22.62
2022-08-07T20:24:00.338Z,22.66
2022-08-07T20:26:44.873Z,22.60
2022-08-07T20:29:48.935Z,22.55
2022-08-07T20:32:11.491Z,22.52
2022-08-07T20:34:55.393Z,22.45
2022-08-07T20:37:34.256Z,22.37
2022-08-07T20:40:32.888Z,22.42
2022-08-07T20:43:09.730Z,22.33
2022-08-07T20:46:27.695Z,22.27
2022-08-07T20:49:53.981Z,22.25
2022-08-07T20:51:40.375Z,22.16
2022-08-07T20:54:30.285Z,22.17
2022-08-07T20:57:05.987Z,22.16
2022-08-07T21:00:06.971Z,22.16
2022-08-07T21:02:54.049Z,22.17
2022-08-07T21:05:53.984Z,22.11
2022-08-07T21:08:20.002Z,22.07
2022-08-07T21:11:02.588Z,22.02
2022-08-07T21:13:57.218Z,22.00
2022-08-07T21:16:29.287Z,21.95
2022-08-07T21:19:01.042Z,21.91
2022-08-07T21:21:33.286Z,21.90
2022-08-07T21:24:31.441Z,21.90
2022-08-07T21:27:07.915Z,21.88
2022-08-07T21:29:52.058Z,21.89
2022-08-07T21:32:46.823Z,21.87
2022-08-07T21:36:04.497Z,21.83
2022-08-07T21:38:27.871Z,21.80
2022-08-07T21:41:09.987Z,21.75
2022-08-07T21:43:55.902Z,21.78
2022-08-07T21:46:31.691Z,21.72
2022-08-07T21:49:16.814Z,21.62
2022-08-07T21:52:03.007Z,21.46
2022-08-07T21:54:56.781Z,21.47
2022-08-07T21:57:51.932Z,21.27
2022-08-07T22:00:25.616Z,21.23
2022-08-07T22:03:08.452Z,21.20
2022-08-07T22:05:49.766Z,21.17
2022-08-07T22:08:23.350Z,21.13
2022-08-07T22:11:00.460Z,21.09
2022-08-07T22:13:51.985Z,21.02
2022-08-07T22:16:44.941Z,20.95
2022-08-07T22:19:23.482Z,20.91
2022-08-07T22:22:17.947Z,20.85
2022-08-07T22:25:03.179Z,20.88
2022-08-07T22:28:07.650Z,20.79
2022-08-07T22:30:52.996Z,20.71
2022-08-07T22:33:53.140Z,20.73
2022-08-07T22:36:38.497Z,20.67
2022-08-07T22:39:23.386Z,20.78
2022-08-07T22:42:03.260Z,20.58
2022-08-07T22:44:57.979Z,20.64
2022-08-07T22:48:00.977Z,20.56
2022-08-07T22:50:56.338Z,20.53
2022-08-07T22:54:06.870Z,20.47
2022-08-07T22:56:46.311Z,20.50
2022-08-07T22:59:52.012Z,20.37
2022-08-07T23:02:56.117Z,20.41
2022-08-07T23:06:10.234Z,20.29
2022-08-07T23:09:03.133Z,20.32
2022-08-07T23:12:09.640Z,20.32
2022-08-07T23:14:55.166Z,20.15
2022-08-07T23:17:57.388Z,20.23
2022-08-07T23:20:52.946Z,20.11
2022-08-07T23:24:11.353Z,20.12
2022-08-07T23:27:16.226Z,20.05
2022-08-07T23:30:38.838Z,20.02
2022-08-07T23:34:36.887Z,20.10
2022-08-07T23:36:17.408Z,20.01
2022-08-07T23:39:08.589Z,20.09
2022-08-07T23:42:04.783Z,19.92
2022-08-07T23:45:15.239Z,19.86
2022-08-07T23:48:25.606Z,19.88
2022-08-07T23:51:00.716Z,19.73
2022-08-07T23:53:49.694Z,19.75
2022-08-07T23:56:28.023Z,19.72
